createdAt,value
2019-05-09T00:00:48.335Z,92.2759
2019-05-09T00:01:51.292Z,91.9707
2019-05-09T00:02:55.278Z,91.6091
2019-05-09T00:03:58.334Z,90.6142
2019-05-09T00:05:03.420Z,91.1727
2019-05-09T00:06:07.315Z,91.4717
2019-05-09T00:07:10.280Z,92.6116
2019-05-09T00:08:14.330Z,91.7327
2019-05-09T00:09:17.272Z,92.0653
2019-05-09T00:10:35.209Z,92.3629
2019-05-09T00:11:29.281Z,93.1838
2019-05-09T00:12:33.523Z,92.6192
2019-05-09T00:13:37.303Z,92.9503
2019-05-09T00:14:40.284Z,93.4127
2019-05-09T00:15:44.360Z,93.8659
2019-05-09T00:16:47.302Z,93.6904
2019-05-09T00:17:53.164Z,93.5729
2019-05-09T00:18:55.290Z,93.9651
2019-05-09T00:19:58.313Z,94.0261
2019-05-09T00:21:04.155Z,93.9239
2019-05-09T00:22:07.270Z,93.0007
2019-05-09T00:23:13.390Z,93.5531
2019-05-09T00:24:17.343Z,93.7331
2019-05-09T00:25:23.506Z,95.0088
2019-05-09T00:26:27.316Z,97.1939
2019-05-09T00:27:30.268Z,98.5122
2019-05-09T00:28:36.031Z,97.8378
2019-05-09T00:29:40.336Z,96.4614
2019-05-09T00:30:44.302Z,95.3582
2019-05-09T00:31:47.309Z,95.3536
2019-05-09T00:32:53.355Z,94.0627
2019-05-09T00:33:56.290Z,94.4747
2019-05-09T00:35:00.316Z,93.4386
2019-05-09T00:36:04.505Z,93.3745
2019-05-09T00:37:10.315Z,92.0897
2019-05-09T00:38:14.325Z,92.8496
2019-05-09T00:39:17.293Z,92.5292
2019-05-09T00:40:23.713Z,92.2957
2019-05-09T00:41:27.346Z,91.4794
2019-05-09T00:42:30.266Z,92.7031
2019-05-09T00:43:34.358Z,92.7214
2019-05-09T00:44:37.284Z,92.2393
2019-05-09T00:45:41.332Z,92.3003
2019-05-09T00:46:44.342Z,91.9707
2019-05-09T00:47:48.336Z,92.6116
2019-05-09T00:48:53.235Z,92.7626
2019-05-09T00:49:56.308Z,92.6162
2019-05-09T00:51:00.308Z,92.9992
2019-05-09T00:52:03.608Z,92.5154
2019-05-09T00:53:07.374Z,93.2967
2019-05-09T00:54:09.262Z,93.5164
2019-05-09T00:55:13.353Z,93.8735
2019-05-09T00:56:16.323Z,94.0612
2019-05-09T00:57:19.302Z,93.6584
2019-05-09T00:58:24.170Z,94.1985
2019-05-09T00:59:27.320Z,94.5617
2019-05-09T01:00:33.238Z,94.5785
2019-05-09T01:01:36.343Z,94.8669
2019-05-09T01:02:40.313Z,94.1085
2019-05-09T01:03:43.354Z,94.0291
2019-05-09T01:04:46.344Z,94.5663
2019-05-09T01:05:50.307Z,95.2209
2019-05-09T01:06:53.965Z,95.3216
2019-05-09T01:07:57.298Z,95.0591
2019-05-09T01:09:00.310Z,95.0591
2019-05-09T01:10:04.457Z,95.2194
2019-05-09T01:11:12.141Z,95.2560
2019-05-09T01:12:15.338Z,94.9630
2019-05-09T01:13:19.287Z,95.4498
2019-05-09T01:14:23.452Z,95.0271
2019-05-09T01:15:27.291Z,94.1527
2019-05-09T01:16:30.314Z,94.4823
2019-05-09T01:17:34.310Z,94.7799
2019-05-09T01:18:37.265Z,94.9462
2019-05-09T01:19:40.328Z,94.6212
2019-05-09T01:20:44.303Z,94.7845
2019-05-09T01:21:47.348Z,94.5846
2019-05-09T01:22:51.329Z,95.0149
2019-05-09T01:23:54.372Z,96.0998
2019-05-09T01:24:58.272Z,95.6542
2019-05-09T01:26:03.612Z,95.9625
2019-05-09T01:27:07.295Z,95.7549
2019-05-09T01:28:11.346Z,94.2092
2019-05-09T01:29:14.363Z,93.6736
2019-05-09T01:30:18.307Z,94.3053
2019-05-09T01:31:20.284Z,94.1634
2019-05-09T01:32:24.287Z,94.1711
2019-05-09T01:33:27.336Z,94.5830
2019-05-09T01:34:30.273Z,94.9691
2019-05-09T01:35:34.312Z,94.8043
2019-05-09T01:36:37.288Z,94.9859
2019-05-09T01:37:43.313Z,95.0790
2019-05-09T01:38:46.340Z,95.2163
2019-05-09T01:39:49.299Z,95.9716
2019-05-09T01:40:53.299Z,95.9838
2019-05-09T01:41:56.320Z,95.9060
2019-05-09T01:43:00.278Z,96.4462
2019-05-09T01:44:04.130Z,96.5835
2019-05-09T01:45:07.291Z,97.0199
2019-05-09T01:46:10.272Z,97.3068
2019-05-09T01:47:14.303Z,97.0687
2019-05-09T01:48:17.279Z,97.2396
2019-05-09T01:49:20.342Z,97.1786
2019-05-09T01:50:23.421Z,94.1955
2019-05-09T01:51:26.333Z,92.9274
2019-05-09T01:52:29.294Z,92.4224
2019-05-09T01:53:33.427Z,92.3445
2019-05-09T01:54:37.301Z,92.4514
2019-05-09T01:55:40.295Z,93.4813
2019-05-09T01:56:43.294Z,92.0836
2019-05-09T01:57:47.972Z,92.2957
2019-05-09T01:58:53.602Z,92.1630
2019-05-09T01:59:57.314Z,92.3583
2019-05-09T02:01:00.310Z,92.5414
2019-05-09T02:02:08.736Z,92.7993
2019-05-09T02:03:13.951Z,92.4224
2019-05-09T02:04:16.300Z,93.1182
2019-05-09T02:05:20.309Z,92.6482
2019-05-09T02:06:24.350Z,92.7123
2019-05-09T02:07:28.314Z,92.9900
2019-05-09T02:08:31.300Z,93.5714
2019-05-09T02:09:35.308Z,92.9213
2019-05-09T02:10:38.279Z,93.0556
2019-05-09T02:11:43.306Z,92.9870
2019-05-09T02:12:49.326Z,93.4112
2019-05-09T02:13:53.489Z,92.8435
2019-05-09T02:14:57.309Z,92.9580
2019-05-09T02:16:00.267Z,93.3028
2019-05-09T02:17:03.341Z,93.3669
2019-05-09T02:18:06.287Z,93.5393
2019-05-09T02:19:09.309Z,93.5714
2019-05-09T02:20:13.731Z,93.5668
2019-05-09T02:21:17.272Z,93.2372
2019-05-09T02:22:23.112Z,93.3242
2019-05-09T02:23:27.325Z,94.0993
2019-05-09T02:24:33.702Z,94.3511
2019-05-09T02:25:37.273Z,93.9300
2019-05-09T02:26:40.318Z,94.3053
2019-05-09T02:27:44.271Z,93.7469
2019-05-09T02:28:47.278Z,94.6349
2019-05-09T02:29:51.373Z,94.6746
2019-05-09T02:30:55.073Z,95.3201
2019-05-09T02:31:58.306Z,95.7824
2019-05-09T02:33:01.280Z,95.9930
2019-05-09T02:34:04.872Z,95.9716
2019-05-09T02:35:08.307Z,96.0128
2019-05-09T02:36:11.341Z,95.5505
2019-05-09T02:37:18.559Z,95.5917
2019-05-09T02:38:22.306Z,95.4452
2019-05-09T02:39:29.267Z,95.5779
2019-05-09T02:40:32.327Z,95.7092
2019-05-09T02:41:35.310Z,95.7794
2019-05-09T02:42:39.953Z,95.5276
2019-05-09T02:43:43.307Z,94.9920
2019-05-09T02:44:49.216Z,93.7560
2019-05-09T02:45:52.916Z,94.7768
2019-05-09T02:46:58.834Z,94.8165
2019-05-09T02:48:02.315Z,95.0271
2019-05-09T02:49:08.523Z,95.5169
2019-05-09T02:50:12.317Z,95.7336
2019-05-09T02:51:18.192Z,95.8343
2019-05-09T02:52:22.302Z,95.9564
2019-05-09T02:53:28.696Z,96.3226
2019-05-09T02:54:32.309Z,96.1166
2019-05-09T02:55:38.535Z,96.3745
2019-05-09T02:56:42.338Z,95.6237
2019-05-09T02:57:48.795Z,95.7778
2019-05-09T02:58:52.315Z,95.2163
2019-05-09T02:59:58.981Z,96.1166
2019-05-09T03:01:01.293Z,95.8511
2019-05-09T03:02:05.348Z,95.9762
2019-05-09T03:03:09.219Z,96.3226
2019-05-09T03:04:13.312Z,95.1888
2019-05-09T03:05:19.545Z,94.2946
2019-05-09T03:06:23.330Z,95.1568
2019-05-09T03:07:28.849Z,94.4793
2019-05-09T03:08:32.328Z,95.4391
2019-05-09T03:09:38.786Z,95.8709
2019-05-09T03:10:42.274Z,95.7702
2019-05-09T03:11:48.280Z,95.5764
2019-05-09T03:12:52.319Z,95.1339
2019-05-09T03:13:58.339Z,95.3613
2019-05-09T03:15:02.288Z,95.6924
2019-05-09T03:16:08.317Z,94.8226
2019-05-09T03:17:12.299Z,95.6054
2019-05-09T03:18:17.704Z,95.9792
2019-05-09T03:19:21.280Z,95.7549
2019-05-09T03:20:28.912Z,96.1349
2019-05-09T03:21:32.276Z,95.3384
2019-05-09T03:22:39.231Z,95.3063
2019-05-09T03:23:43.319Z,95.6725
2019-05-09T03:24:48.611Z,95.3338
2019-05-09T03:25:52.311Z,94.3465
2019-05-09T03:26:55.292Z,93.5409
2019-05-09T03:27:59.330Z,94.0719
2019-05-09T03:29:02.283Z,93.1151
2019-05-09T03:30:11.104Z,93.0449
2019-05-09T03:31:14.321Z,93.0449
2019-05-09T03:32:19.490Z,92.6558
2019-05-09T03:33:23.354Z,92.8298
2019-05-09T03:34:29.778Z,93.0053
2019-05-09T03:35:32.301Z,92.4651
2019-05-09T03:36:34.445Z,93.0877
2019-05-09T03:37:38.355Z,93.4340
2019-05-09T03:38:41.276Z,93.1914
2019-05-09T03:39:44.310Z,92.9488
2019-05-09T03:40:47.783Z,92.6101
2019-05-09T03:41:50.316Z,92.8756
2019-05-09T03:42:54.314Z,92.5322
2019-05-09T03:43:58.518Z,92.8313
2019-05-09T03:45:02.307Z,93.1182
2019-05-09T03:46:07.664Z,94.0978
2019-05-09T03:47:11.271Z,93.1838
2019-05-09T03:48:14.292Z,93.0999
2019-05-09T03:49:17.987Z,93.6736
2019-05-09T03:50:21.296Z,93.5851
2019-05-09T03:51:24.332Z,93.9849
2019-05-09T03:52:28.268Z,94.3358
2019-05-09T03:53:31.286Z,94.3694
2019-05-09T03:54:37.445Z,94.5830
2019-05-09T03:55:41.270Z,94.4503
2019-05-09T03:56:44.308Z,94.5525
2019-05-09T03:57:48.296Z,95.2575
2019-05-09T03:58:53.378Z,95.2987
2019-05-09T03:59:57.356Z,95.3765
2019-05-09T04:01:00.308Z,95.5947
2019-05-09T04:02:04.288Z,95.5856
2019-05-09T04:03:08.164Z,95.9701
2019-05-09T04:04:11.318Z,96.3241
2019-05-09T04:05:15.307Z,96.0632
2019-05-09T04:06:18.598Z,96.0113
2019-05-09T04:07:22.285Z,95.8480
2019-05-09T04:08:25.336Z,96.1181
2019-05-09T04:09:29.275Z,96.1349
2019-05-09T04:10:32.281Z,95.7839
2019-05-09T04:11:35.287Z,96.1181
2019-05-09T04:12:52.763Z,95.8114
2019-05-09T04:13:47.679Z,95.4589
2019-05-09T04:14:51.279Z,95.4498
2019-05-09T04:15:54.306Z,95.5489
2019-05-09T04:16:58.268Z,95.5535
2019-05-09T04:18:01.295Z,96.1089
2019-05-09T04:19:04.301Z,94.8669
2019-05-09T04:20:08.318Z,94.6014
2019-05-09T04:21:11.295Z,95.0500
2019-05-09T04:22:15.297Z,95.6771
2019-05-09T04:23:18.748Z,95.8572
2019-05-09T04:24:22.324Z,95.2789
2019-05-09T04:25:27.234Z,93.5897
2019-05-09T04:26:30.275Z,93.3471
2019-05-09T04:27:34.303Z,93.4615
2019-05-09T04:28:39.687Z,93.0373
2019-05-09T04:29:43.346Z,91.9753
2019-05-09T04:30:47.764Z,92.1202
2019-05-09T04:31:51.277Z,91.3603
2019-05-09T04:32:54.303Z,91.2276
2019-05-09T04:33:57.505Z,91.8364
2019-05-09T04:35:01.279Z,91.7327
2019-05-09T04:36:04.304Z,91.2108
2019-05-09T04:37:11.625Z,91.2383
2019-05-09T04:38:15.311Z,91.2734
2019-05-09T04:39:23.620Z,91.1269
2019-05-09T04:40:31.849Z,89.7917
2019-05-09T04:41:35.295Z,89.2500
2019-05-09T04:42:43.161Z,89.7276
2019-05-09T04:43:48.709Z,89.7719
2019-05-09T04:44:57.248Z,89.7169
2019-05-09T04:46:00.336Z,88.5191
2019-05-09T04:47:04.275Z,89.1508
2019-05-09T04:48:07.752Z,89.3797
2019-05-09T04:49:11.272Z,89.6956
2019-05-09T04:50:19.917Z,89.9275
2019-05-09T04:51:23.318Z,89.3706
2019-05-09T04:52:27.914Z,89.3111
2019-05-09T04:53:31.346Z,89.5766
2019-05-09T04:54:35.295Z,89.7276
2019-05-09T04:55:38.317Z,88.7465
2019-05-09T04:56:41.287Z,88.6641
2019-05-09T04:57:45.305Z,89.4942
2019-05-09T04:58:48.358Z,90.0511
2019-05-09T04:59:52.300Z,89.4667
2019-05-09T05:00:57.229Z,89.0440
2019-05-09T05:02:01.315Z,88.9204
2019-05-09T05:03:04.316Z,89.4240
2019-05-09T05:04:07.804Z,89.8238
2019-05-09T05:05:11.275Z,90.2617
2019-05-09T05:06:14.291Z,90.1381
2019-05-09T05:07:18.048Z,89.7169
2019-05-09T05:08:21.285Z,89.1127
2019-05-09T05:09:27.575Z,90.0786
2019-05-09T05:10:31.281Z,89.5018
2019-05-09T05:11:34.338Z,89.8817
2019-05-09T05:12:38.315Z,88.9632
2019-05-09T05:13:41.280Z,88.8212
2019-05-09T05:14:47.454Z,89.1691
2019-05-09T05:15:51.317Z,89.4667
2019-05-09T05:17:04.353Z,89.6178
2019-05-09T05:18:03.271Z,90.0557
2019-05-09T05:19:07.514Z,90.6569
2019-05-09T05:20:11.315Z,90.7347
2019-05-09T05:21:14.316Z,92.0058
2019-05-09T05:22:18.422Z,92.4865
2019-05-09T05:23:21.323Z,92.6650
2019-05-09T05:24:27.647Z,93.5210
2019-05-09T05:25:31.325Z,93.1472
2019-05-09T05:26:34.288Z,93.6645
2019-05-09T05:27:38.380Z,93.6492
2019-05-09T05:28:41.295Z,93.8552
2019-05-09T05:29:47.495Z,93.8018
2019-05-09T05:30:50.327Z,93.3928
2019-05-09T05:31:54.290Z,92.7718
2019-05-09T05:32:58.032Z,93.2525
2019-05-09T05:34:00.325Z,92.4605
2019-05-09T05:35:04.341Z,92.7657
2019-05-09T05:36:07.922Z,90.2800
2019-05-09T05:37:11.318Z,89.8726
2019-05-09T05:38:14.319Z,90.6462
2019-05-09T05:39:18.310Z,91.4946
2019-05-09T05:40:21.303Z,91.6304
2019-05-09T05:41:24.299Z,92.3262
2019-05-09T05:42:28.509Z,93.5348
2019-05-09T05:43:41.512Z,93.7041
2019-05-09T05:44:40.320Z,93.9986
2019-05-09T05:45:43.284Z,93.9010
2019-05-09T05:46:50.531Z,94.5113
2019-05-09T05:47:54.287Z,94.3969
2019-05-09T05:48:57.872Z,94.4518
2019-05-09T05:50:01.320Z,94.2916
2019-05-09T05:51:04.303Z,94.4381
2019-05-09T05:52:08.331Z,94.5373
2019-05-09T05:53:11.301Z,94.0169
2019-05-09T05:54:15.331Z,94.4732
2019-05-09T05:55:18.425Z,94.6014
2019-05-09T05:56:21.308Z,94.2321
2019-05-09T05:57:27.365Z,94.4976
2019-05-09T05:58:31.293Z,94.9447
2019-05-09T05:59:39.847Z,94.0581
2019-05-09T06:00:43.325Z,93.7041
2019-05-09T06:01:47.806Z,94.0108
2019-05-09T06:02:51.333Z,93.4340
2019-05-09T06:03:54.295Z,92.7794
2019-05-09T06:04:58.316Z,93.6599
2019-05-09T06:06:01.287Z,92.8267
2019-05-09T06:07:07.730Z,92.3232
2019-05-09T06:08:11.361Z,92.2850
2019-05-09T06:09:15.306Z,91.7495
2019-05-09T06:10:18.809Z,92.7565
2019-05-09T06:11:22.318Z,91.7830
2019-05-09T06:12:27.620Z,91.1315
2019-05-09T06:13:31.306Z,92.3278
2019-05-09T06:14:37.599Z,90.7744
2019-05-09T06:15:41.289Z,89.7398
2019-05-09T06:16:45.277Z,89.8497
2019-05-09T06:17:48.605Z,90.6935
2019-05-09T06:18:52.278Z,91.3207
2019-05-09T06:19:58.675Z,91.0536
2019-05-09T06:21:02.289Z,91.9890
2019-05-09T06:22:08.172Z,90.8385
2019-05-09T06:23:12.358Z,91.1604
2019-05-09T06:24:17.684Z,90.4494
2019-05-09T06:25:21.428Z,90.3212
2019-05-09T06:26:25.314Z,90.0648
2019-05-09T06:27:29.301Z,90.4952
2019-05-09T06:28:32.329Z,89.4011
2019-05-09T06:29:38.743Z,91.1284
2019-05-09T06:30:42.291Z,90.2342
2019-05-09T06:31:48.274Z,90.8888
2019-05-09T06:32:52.312Z,90.5013
2019-05-09T06:33:57.606Z,91.1559
2019-05-09T06:35:01.300Z,91.1467
2019-05-09T06:36:03.371Z,91.0353
2019-05-09T06:37:09.070Z,89.7993
2019-05-09T06:38:12.334Z,89.9550
2019-05-09T06:39:17.859Z,90.9895
2019-05-09T06:40:21.663Z,90.3410
2019-05-09T06:41:25.322Z,90.2449
2019-05-09T06:42:29.285Z,90.0847
2019-05-09T06:43:32.310Z,90.9133
2019-05-09T06:44:37.421Z,90.2205
2019-05-09T06:45:41.783Z,90.1884
2019-05-09T06:46:45.307Z,89.7536
2019-05-09T06:47:48.746Z,90.4036
2019-05-09T06:48:52.350Z,89.7963
2019-05-09T06:49:57.450Z,88.4535
2019-05-09T06:51:01.322Z,87.9835
2019-05-09T06:52:05.290Z,88.4596
2019-05-09T06:53:08.323Z,89.4057
2019-05-09T06:54:12.280Z,89.2699
2019-05-09T06:55:17.201Z,89.1859
2019-05-09T06:56:21.331Z,90.1396
2019-05-09T06:57:27.885Z,89.2363
2019-05-09T06:58:31.306Z,90.1289
2019-05-09T06:59:35.340Z,90.3227
2019-05-09T07:00:38.341Z,90.6569
2019-05-09T07:01:42.321Z,90.7393
2019-05-09T07:02:47.715Z,88.5054
2019-05-09T07:03:51.320Z,88.2216
2019-05-09T07:04:55.338Z,87.8584
2019-05-09T07:05:58.299Z,87.6951
2019-05-09T07:07:02.312Z,87.8782
2019-05-09T07:08:05.288Z,87.4693
2019-05-09T07:09:09.327Z,87.4830
2019-05-09T07:10:12.351Z,86.9612
2019-05-09T07:11:15.347Z,88.0385
2019-05-09T07:12:19.325Z,87.9683
2019-05-09T07:13:22.305Z,85.7298
2019-05-09T07:14:31.716Z,86.4897
2019-05-09T07:15:34.299Z,86.0822
2019-05-09T07:16:38.319Z,86.0746
2019-05-09T07:17:41.270Z,84.8844
2019-05-09T07:18:44.311Z,85.1362
2019-05-09T07:19:49.069Z,85.6718
2019-05-09T07:20:52.315Z,85.4505
2019-05-09T07:21:57.941Z,85.4566
2019-05-09T07:23:01.278Z,85.9144
2019-05-09T07:24:05.334Z,84.9744
2019-05-09T07:25:11.009Z,84.7868
2019-05-09T07:26:17.496Z,84.1917
2019-05-09T07:27:21.284Z,85.0065
2019-05-09T07:28:24.325Z,85.4429
2019-05-09T07:29:28.531Z,85.7343
2019-05-09T07:30:32.307Z,86.6224
2019-05-09T07:31:37.955Z,86.5736
2019-05-09T07:32:41.311Z,86.8559
2019-05-09T07:33:44.325Z,87.3243
2019-05-09T07:34:48.330Z,87.3930
2019-05-09T07:35:51.331Z,87.0298
2019-05-09T07:36:57.932Z,86.2150
2019-05-09T07:38:01.301Z,86.1799
2019-05-09T07:39:05.281Z,86.2974
2019-05-09T07:40:08.590Z,85.8351
2019-05-09T07:41:12.267Z,85.4231
2019-05-09T07:42:17.865Z,85.4871
2019-05-09T07:43:21.294Z,84.3442
2019-05-09T07:44:25.330Z,84.8890
2019-05-09T07:45:28.328Z,85.1682
2019-05-09T07:46:32.289Z,84.4770
2019-05-09T07:47:35.334Z,84.8966
2019-05-09T07:48:38.340Z,84.4938
2019-05-09T07:49:42.304Z,84.2847
2019-05-09T07:50:45.284Z,83.3417
2019-05-09T07:51:49.307Z,83.9277
2019-05-09T07:52:52.316Z,84.3122
2019-05-09T07:53:58.706Z,84.5411
2019-05-09T07:55:02.295Z,85.0202
2019-05-09T07:56:07.715Z,85.8228
2019-05-09T07:57:11.311Z,85.4139
2019-05-09T07:58:14.531Z,86.4317
2019-05-09T07:59:18.307Z,86.0502
2019-05-09T08:00:21.335Z,86.2257
2019-05-09T08:01:27.853Z,85.9174
2019-05-09T08:02:31.312Z,85.5299
2019-05-09T08:03:34.284Z,86.0502
2019-05-09T08:04:38.593Z,86.1708
2019-05-09T08:05:42.284Z,84.6861
2019-05-09T08:06:48.620Z,85.1591
2019-05-09T08:07:52.315Z,85.2140
2019-05-09T08:08:58.136Z,85.2491
2019-05-09T08:10:02.386Z,85.3330
2019-05-09T08:11:05.311Z,83.8300
2019-05-09T08:12:09.363Z,84.6143
2019-05-09T08:13:12.329Z,85.0767
2019-05-09T08:14:17.596Z,84.4892
2019-05-09T08:15:21.330Z,84.0772
2019-05-09T08:16:27.277Z,84.4389
2019-05-09T08:17:31.319Z,84.9241
2019-05-09T08:18:34.329Z,85.4826
2019-05-09T08:19:38.325Z,83.7522
2019-05-09T08:20:41.298Z,84.1230
2019-05-09T08:21:45.333Z,84.2008
2019-05-09T08:22:57.282Z,83.2044
2019-05-09T08:23:58.014Z,83.8621
2019-05-09T08:25:01.294Z,84.0742
2019-05-09T08:26:04.688Z,83.7903
2019-05-09T08:27:08.657Z,84.1886
2019-05-09T08:28:12.324Z,82.8229
2019-05-09T08:29:17.849Z,82.2141
2019-05-09T08:30:23.321Z,82.7909
2019-05-09T08:31:28.052Z,81.7853
2019-05-09T08:32:31.314Z,81.3214
2019-05-09T08:33:34.341Z,81.7533
2019-05-09T08:34:38.349Z,82.2507
2019-05-09T08:35:41.321Z,82.8519
2019-05-09T08:36:47.605Z,82.1744
2019-05-09T08:37:51.308Z,82.4887
2019-05-09T08:38:58.357Z,81.9638
2019-05-09T08:40:02.318Z,81.2909
2019-05-09T08:41:05.327Z,81.5152
2019-05-09T08:42:09.300Z,81.4084
2019-05-09T08:43:12.383Z,80.4517
2019-05-09T08:44:18.412Z,80.6256
2019-05-09T08:45:27.832Z,81.7487
2019-05-09T08:46:30.304Z,81.1124
2019-05-09T08:47:33.333Z,81.6831
2019-05-09T08:48:37.635Z,80.6546
2019-05-09T08:49:41.327Z,80.5219
2019-05-09T08:50:44.285Z,79.9908
2019-05-09T08:52:06.725Z,80.0763
2019-05-09T08:52:57.595Z,79.9069
2019-05-09T08:54:01.357Z,80.6729
2019-05-09T08:55:04.328Z,80.1038
2019-05-09T08:56:09.049Z,79.7482
2019-05-09T08:57:14.294Z,78.6908
2019-05-09T08:58:19.633Z,78.1552
2019-05-09T08:59:23.339Z,76.8460
2019-05-09T09:00:28.142Z,76.6613
2019-05-09T09:01:50.002Z,77.4777
2019-05-09T09:02:40.336Z,78.4665
2019-05-09T09:03:43.305Z,77.9400
2019-05-09T09:04:48.848Z,76.6796
2019-05-09T09:05:52.309Z,77.4258
2019-05-09T09:06:57.652Z,76.7269
2019-05-09T09:08:01.340Z,77.5647
2019-05-09T09:09:05.792Z,77.7966
2019-05-09T09:10:11.299Z,76.4935
2019-05-09T09:11:14.318Z,76.8490
2019-05-09T09:12:29.423Z,76.5789
2019-05-09T09:13:28.230Z,76.4477
2019-05-09T09:14:32.281Z,76.1730
2019-05-09T09:16:02.263Z,75.2026
2019-05-09T09:16:43.293Z,74.4213
2019-05-09T09:17:48.872Z,74.0963
2019-05-09T09:18:52.291Z,74.4533
2019-05-09T09:19:58.221Z,72.8756
2019-05-09T09:21:02.342Z,72.6589
2019-05-09T09:22:08.601Z,73.9376
2019-05-09T09:23:14.364Z,73.9239
2019-05-09T09:24:18.318Z,73.7911
2019-05-09T09:25:21.315Z,72.8008
2019-05-09T09:26:24.349Z,72.7748
2019-05-09T09:27:28.319Z,72.8023
2019-05-09T09:28:31.324Z,72.7337
2019-05-09T09:29:34.323Z,73.3700
2019-05-09T09:30:38.575Z,73.5790
2019-05-09T09:31:43.313Z,73.7682
2019-05-09T09:32:47.914Z,74.3633
2019-05-09T09:33:51.299Z,73.9132
2019-05-09T09:34:55.343Z,74.0414
2019-05-09T09:35:58.340Z,74.2382
2019-05-09T09:37:05.351Z,74.5312
2019-05-09T09:38:10.304Z,73.8369
2019-05-09T09:39:14.355Z,74.3267
2019-05-09T09:40:17.797Z,73.8949
2019-05-09T09:41:21.351Z,73.5195
2019-05-09T09:42:28.002Z,74.2519
2019-05-09T09:43:31.280Z,73.9376
2019-05-09T09:44:35.357Z,74.1299
2019-05-09T09:45:38.312Z,73.1762
2019-05-09T09:46:42.336Z,73.6751
2019-05-09T09:47:47.990Z,72.8145
2019-05-09T09:48:51.315Z,72.5994
2019-05-09T09:49:57.848Z,71.8441
2019-05-09T09:51:02.308Z,71.3649
2019-05-09T09:52:08.572Z,71.5526
2019-05-09T09:53:12.334Z,71.6884
2019-05-09T09:54:18.643Z,71.9539
2019-05-09T09:55:22.381Z,71.3191
2019-05-09T09:56:25.299Z,70.2022
2019-05-09T09:57:29.297Z,70.3304
2019-05-09T09:58:32.309Z,70.3792
2019-05-09T09:59:38.570Z,69.7246
2019-05-09T10:00:44.349Z,70.1106
2019-05-09T10:01:48.304Z,69.2546
2019-05-09T10:02:51.374Z,69.6147
2019-05-09T10:03:54.308Z,68.1102
2019-05-09T10:04:58.328Z,67.8630
2019-05-09T10:06:01.316Z,67.8523
2019-05-09T10:07:05.303Z,67.5471
2019-05-09T10:08:13.284Z,67.7195
2019-05-09T10:09:17.492Z,66.9780
2019-05-09T10:10:21.315Z,67.1351
2019-05-09T10:11:24.308Z,66.1051
2019-05-09T10:12:28.976Z,66.4561
2019-05-09T10:13:32.301Z,66.5568
2019-05-09T10:14:36.317Z,66.5675
2019-05-09T10:15:39.271Z,65.9632
2019-05-09T10:16:43.371Z,65.0965
2019-05-09T10:17:47.717Z,65.0050
2019-05-09T10:18:51.298Z,64.3092
2019-05-09T10:19:55.304Z,63.3204
2019-05-09T10:20:58.675Z,62.7405
2019-05-09T10:22:02.357Z,63.9704
2019-05-09T10:23:15.211Z,65.0385
2019-05-09T10:24:13.290Z,64.8722
2019-05-09T10:25:18.261Z,63.8102
2019-05-09T10:26:22.317Z,64.3702
2019-05-09T10:27:28.364Z,64.8264
2019-05-09T10:28:32.280Z,64.5197
2019-05-09T10:29:38.530Z,64.3519
2019-05-09T10:30:42.292Z,64.5121
2019-05-09T10:31:48.651Z,64.4480
2019-05-09T10:32:52.303Z,64.2222
2019-05-09T10:33:55.338Z,63.9017
2019-05-09T10:34:59.294Z,64.9973
2019-05-09T10:36:04.777Z,64.2954
2019-05-09T10:37:09.405Z,64.0085
2019-05-09T10:38:12.309Z,64.8554
2019-05-09T10:39:18.787Z,63.4455
2019-05-09T10:40:21.665Z,64.0955
2019-05-09T10:41:25.291Z,64.6082
2019-05-09T10:42:29.371Z,64.8081
2019-05-09T10:43:38.418Z,63.1235
2019-05-09T10:44:40.328Z,64.2054
2019-05-09T10:45:43.306Z,63.9445
2019-05-09T10:46:56.370Z,63.1525
2019-05-09T10:47:57.532Z,63.3906
2019-05-09T10:49:01.334Z,62.7680
2019-05-09T10:50:05.300Z,62.6352
2019-05-09T10:51:10.441Z,62.8626
2019-05-09T10:52:14.708Z,62.3514
2019-05-09T10:53:18.316Z,63.0091
2019-05-09T10:54:22.321Z,62.3285
2019-05-09T10:55:25.301Z,60.4364
2019-05-09T10:56:28.347Z,60.8988
2019-05-09T10:57:32.728Z,60.2029
2019-05-09T10:58:37.398Z,60.8530
2019-05-09T10:59:41.330Z,60.1587
2019-05-09T11:00:44.294Z,60.4501
2019-05-09T11:01:49.422Z,61.0513
2019-05-09T11:02:53.301Z,61.0925
2019-05-09T11:03:58.645Z,60.5280
2019-05-09T11:05:02.318Z,60.7813
2019-05-09T11:06:05.363Z,59.6948
2019-05-09T11:07:09.321Z,59.9329
2019-05-09T11:08:12.298Z,60.2258
2019-05-09T11:09:18.231Z,60.7431
2019-05-09T11:10:28.387Z,59.6780
2019-05-09T11:11:30.357Z,60.1938
2019-05-09T11:12:34.321Z,60.3037
2019-05-09T11:13:38.968Z,60.8530
2019-05-09T11:14:43.342Z,60.7797
2019-05-09T11:15:47.986Z,61.3382
2019-05-09T11:17:06.675Z,61.9699
2019-05-09T11:17:59.314Z,60.9537
2019-05-09T11:19:02.307Z,61.1612
2019-05-09T11:20:08.699Z,61.9715
2019-05-09T11:21:12.324Z,60.1770
2019-05-09T11:22:15.309Z,59.9939
2019-05-09T11:23:19.384Z,60.3357
2019-05-09T11:24:38.788Z,60.6195
2019-05-09T11:25:31.351Z,61.6220
2019-05-09T11:26:34.296Z,63.4897
2019-05-09T11:27:38.870Z,64.2191
2019-05-09T11:28:42.329Z,65.5406
2019-05-09T11:29:49.639Z,66.3478
2019-05-09T11:30:53.314Z,66.5980
2019-05-09T11:31:58.756Z,66.2791
2019-05-09T11:33:02.344Z,66.2776
2019-05-09T11:34:04.326Z,66.6362
2019-05-09T11:35:09.060Z,66.4240
2019-05-09T11:36:12.612Z,66.3981
2019-05-09T11:37:16.295Z,66.1830
2019-05-09T11:38:33.007Z,65.4230
2019-05-09T11:39:36.647Z,65.4734
2019-05-09T11:40:37.658Z,65.2766
2019-05-09T11:41:41.333Z,65.7206
2019-05-09T11:42:45.299Z,65.0278
2019-05-09T11:43:48.717Z,64.8508
2019-05-09T11:44:52.335Z,64.3503
2019-05-09T11:45:55.341Z,62.7207
2019-05-09T11:46:59.331Z,61.8372
2019-05-09T11:48:02.279Z,61.2665
2019-05-09T11:49:08.014Z,61.6419
2019-05-09T11:50:12.304Z,61.1933
2019-05-09T11:51:18.249Z,61.8616
2019-05-09T11:52:23.315Z,62.1225
2019-05-09T11:53:28.590Z,59.1516
2019-05-09T11:54:32.307Z,60.3967
2019-05-09T11:55:39.430Z,61.5137
2019-05-09T11:56:43.306Z,62.4338
2019-05-09T11:57:48.509Z,62.3133
2019-05-09T11:58:51.285Z,61.1154
2019-05-09T11:59:57.684Z,60.7767
2019-05-09T12:01:02.613Z,60.4639
2019-05-09T12:02:08.910Z,59.6857
2019-05-09T12:03:12.335Z,59.8917
2019-05-09T12:04:15.285Z,60.2762
2019-05-09T12:05:19.433Z,61.3809
2019-05-09T12:06:22.291Z,61.4710
2019-05-09T12:07:28.608Z,62.1729
2019-05-09T12:08:32.250Z,61.1109
2019-05-09T12:09:38.550Z,61.4725
2019-05-09T12:10:42.336Z,61.4160
2019-05-09T12:11:44.878Z,61.4435
2019-05-09T12:12:47.841Z,61.4984
2019-05-09T12:13:51.295Z,61.2665
2019-05-09T12:14:55.304Z,60.7630
2019-05-09T12:15:58.557Z,61.4252
2019-05-09T12:17:02.319Z,61.4496
2019-05-09T12:18:09.144Z,61.9699
2019-05-09T12:19:13.320Z,62.3270
2019-05-09T12:20:18.082Z,61.7227
2019-05-09T12:21:21.341Z,62.0310
2019-05-09T12:22:27.928Z,61.9837
2019-05-09T12:23:31.300Z,61.8753
2019-05-09T12:24:35.293Z,61.8341
2019-05-09T12:25:38.780Z,61.1063
2019-05-09T12:26:42.373Z,61.1429
2019-05-09T12:27:48.528Z,60.2075
2019-05-09T12:28:52.351Z,60.9140
2019-05-09T12:29:58.068Z,61.3443
2019-05-09T12:31:01.335Z,61.6510
2019-05-09T12:32:04.336Z,61.1048
2019-05-09T12:33:08.519Z,61.0819
2019-05-09T12:34:12.316Z,61.5000
2019-05-09T12:35:18.882Z,61.2619
2019-05-09T12:36:22.289Z,62.3087
2019-05-09T12:37:28.181Z,62.4201
2019-05-09T12:38:31.314Z,62.4247
2019-05-09T12:39:37.728Z,61.6465
2019-05-09T12:40:41.323Z,61.7288
2019-05-09T12:41:44.263Z,63.1617
2019-05-09T12:42:50.046Z,63.9704
2019-05-09T12:43:54.295Z,63.3112
2019-05-09T12:44:58.922Z,63.1342
2019-05-09T12:46:02.326Z,63.2792
2019-05-09T12:47:06.426Z,62.5284
2019-05-09T12:48:15.014Z,61.7700
2019-05-09T12:49:18.930Z,61.9715
2019-05-09T12:50:23.330Z,61.6007
2019-05-09T12:51:28.276Z,60.9781
2019-05-09T12:52:32.323Z,60.9949
2019-05-09T12:53:35.339Z,60.7935
2019-05-09T12:54:39.301Z,60.7355
2019-05-09T12:55:42.298Z,61.5686
2019-05-09T12:56:45.316Z,61.1688